Time;durP1;ratioP1;P1;durP2;ratioP2;P2;SDS_P1;SDS_P2;PMS_P1;PMS_P2;Temp;Humidity;BMP_temperature;BMP_pressure;BME280_temperature;BME280_humidity;BME280_pressure;Samples;Min_cycle;Max_cycle;Signal;HPM_P1;HPM_P2
2021/09/20 00:02:19;;;;;;;2.30;1.27;;;;;;;;;;5068319;28;20036;-58
2021/09/20 00:04:46;;;;;;;3.10;1.60;;;;;;;;;;5072865;28;20024;-59
2021/09/20 00:07:12;;;;;;;3.17;1.87;;;;;;;;;;5073438;28;20073;-58
2021/09/20 00:09:39;;;;;;;4.40;2.67;;;;;;;;;;5073773;28;20024;-59
2021/09/20 00:12:06;;;;;;;6.10;3.20;;;;;;;;;;5073821;28;20025;-59
2021/09/20 00:14:33;;;;;;;3.70;2.03;;;;;;;;;;5073201;28;20087;-58
2021/09/20 00:17:00;;;;;;;3.70;1.90;;;;;;;;;;5068409;28;20027;-59
2021/09/20 00:19:26;;;;;;;5.43;1.90;;;;;;;;;;5068540;28;20034;-59
2021/09/20 00:21:53;;;;;;;7.73;5.07;;;;;;;;;;5067850;28;20025;-59
2021/09/20 00:24:20;;;;;;;5.73;3.50;;;;;;;;;;5068146;28;20533;-59
2021/09/20 00:26:47;;;;;;;4.40;3.00;;;;;;;;;;5072284;28;20047;-58
2021/09/20 00:29:13;;;;;;;2.30;1.60;;;;;;;;;;5073094;28;20043;-58
2021/09/20 00:31:40;;;;;;;5.03;3.30;;;;;;;;;;5073156;28;20467;-58
2021/09/20 00:34:07;;;;;;;4.53;2.10;;;;;;;;;;5072658;28;20521;-58
2021/09/20 00:36:34;;;;;;;4.30;1.83;;;;;;;;;;5073034;28;20056;-58
2021/09/20 00:39:01;;;;;;;7.23;1.40;;;;;;;;;;5068453;28;20056;-58
2021/09/20 00:41:28;;;;;;;3.30;1.87;;;;;;;;;;5067645;28;20040;-58
2021/09/20 00:43:54;;;;;;;3.03;1.90;;;;;;;;;;5068052;28;20129;-58
2021/09/20 00:46:21;;;;;;;5.93;2.67;;;;;;;;;;5068079;28;20032;-58
2021/09/20 00:48:48;;;;;;;5.33;1.80;;;;;;;;;;5071221;28;20048;-58
2021/09/20 00:51:15;;;;;;;2.80;1.50;;;;;;;;;;5072151;28;20036;-58
2021/09/20 00:53:42;;;;;;;3.20;1.60;;;;;;;;;;5072781;28;20024;-58
2021/09/20 00:56:09;;;;;;;3.50;2.17;;;;;;;;;;5072975;28;20032;-58
2021/09/20 00:58:36;;;;;;;6.50;3.53;;;;;;;;;;5072764;28;20059;-58
2021/09/20 01:01:03;;;;;;;6.20;2.57;;;;;;;;;;5068774;28;20064;-59
2021/09/20 01:03:30;;;;;;;7.63;2.10;;;;;;;;;;5067284;28;20036;-59
2021/09/20 01:05:58;;;;;;;6.77;1.90;;;;;;;;;;5067695;28;20029;-58
2021/09/20 01:08:26;;;;;;;3.73;2.17;;;;;;;;;;5067428;28;20134;-58
2021/09/20 01:10:52;;;;;;;3.17;1.67;;;;;;;;;;5070415;28;20029;-58
2021/09/20 01:13:19;;;;;;;3.07;1.83;;;;;;;;;;5072284;28;20017;-59
2021/09/20 01:15:46;;;;;;;7.07;2.03;;;;;;;;;;5072649;28;20029;-58
2021/09/20 01:18:13;;;;;;;4.47;1.90;;;;;;;;;;5072540;28;20099;-57
2021/09/20 01:20:40;;;;;;;4.27;2.20;;;;;;;;;;5071903;28;20029;-58
2021/09/20 01:23:06;;;;;;;3.50;2.20;;;;;;;;;;5068771;28;20032;-58
2021/09/20 01:25:33;;;;;;;3.83;2.23;;;;;;;;;;5067006;28;20382;-58
2021/09/20 01:28:00;;;;;;;3.67;2.67;;;;;;;;;;5067313;28;20043;-58
2021/09/20 01:30:27;;;;;;;5.57;2.33;;;;;;;;;;5067210;28;20051;-59
2021/09/20 01:32:54;;;;;;;5.43;2.63;;;;;;;;;;5069647;28;20060;-58
2021/09/20 01:35:21;;;;;;;5.07;2.13;;;;;;;;;;5072309;28;20086;-58
2021/09/20 01:37:49;;;;;;;3.47;2.03;;;;;;;;;;5072038;28;20525;-58
2021/09/20 01:40:17;;;;;;;2.47;1.80;;;;;;;;;;5072076;28;20029;-58
2021/09/20 01:42:43;;;;;;;3.13;2.03;;;;;;;;;;5071919;28;20017;-58
2021/09/20 01:45:14;;;;;;;7.70;2.50;;;;;;;;;;5069376;28;20021;-58
2021/09/20 01:47:41;;;;;;;4.13;2.00;;;;;;;;;;5066939;28;20422;-58
2021/09/20 01:50:09;;;;;;;4.43;2.20;;;;;;;;;;5067265;28;20086;-58
2021/09/20 01:52:36;;;;;;;2.63;1.80;;;;;;;;;;5066853;28;20028;-58
2021/09/20 01:55:03;;;;;;;5.80;2.30;;;;;;;;;;5069564;28;20033;-59
2021/09/20 01:57:30;;;;;;;3.23;1.83;;;;;;;;;;5071400;28;20471;-59
2021/09/20 01:59:57;;;;;;;5.47;2.30;;;;;;;;;;5072212;28;20503;-58
2021/09/20 02:02:23;;;;;;;6.87;2.00;;;;;;;;;;5072233;28;20028;-59
2021/09/20 02:04:50;;;;;;;4.33;1.67;;;;;;;;;;5071741;28;20052;-59
2021/09/20 02:07:17;;;;;;;3.90;2.10;;;;;;;;;;5069023;28;20028;-58
2021/09/20 02:09:44;;;;;;;6.80;3.23;;;;;;;;;;5067129;28;20025;-58
2021/09/20 02:12:11;;;;;;;4.33;2.80;;;;;;;;;;5066568;28;20024;-58
2021/09/20 02:14:37;;;;;;;10.93;3.10;;;;;;;;;;5066979;28;20071;-58
2021/09/20 02:17:04;;;;;;;3.90;2.50;;;;;;;;;;5068755;28;20028;-58
2021/09/20 02:19:31;;;;;;;4.40;2.83;;;;;;;;;;5072010;28;20101;-58
2021/09/20 02:21:58;;;;;;;6.87;3.40;;;;;;;;;;5071772;28;20379;-58
2021/09/20 02:24:25;;;;;;;6.03;2.70;;;;;;;;;;5071925;28;20112;-58
2021/09/20 02:26:52;;;;;;;3.93;2.87;;;;;;;;;;5071333;28;20040;-58
2021/09/20 02:29:18;;;;;;;4.90;2.67;;;;;;;;;;5068759;28;20042;-58
2021/09/20 02:31:45;;;;;;;3.73;2.40;;;;;;;;;;5069036;28;20093;-58
2021/09/20 02:34:12;;;;;;;5.63;2.90;;;;;;;;;;5070461;28;20028;-58
2021/09/20 02:36:39;;;;;;;11.53;2.43;;;;;;;;;;5070068;28;20060;-58
2021/09/20 02:39:05;;;;;;;4.83;2.67;;;;;;;;;;5072218;28;21243;-58
2021/09/20 02:41:32;;;;;;;3.87;2.00;;;;;;;;;;5075194;28;20383;-58
2021/09/20 02:43:59;;;;;;;4.17;2.30;;;;;;;;;;5075052;28;20170;-58
2021/09/20 02:46:26;;;;;;;3.50;2.40;;;;;;;;;;5074664;28;20036;-58
2021/09/20 02:48:53;;;;;;;4.07;2.00;;;;;;;;;;5075094;28;20450;-58
2021/09/20 02:51:19;;;;;;;4.43;2.27;;;;;;;;;;5073394;28;20031;-58
2021/09/20 02:53:46;;;;;;;5.30;2.60;;;;;;;;;;5070328;28;20027;-58
2021/09/20 02:56:13;;;;;;;4.80;2.47;;;;;;;;;;5070071;28;20424;-58
2021/09/20 02:58:40;;;;;;;4.17;2.20;;;;;;;;;;5069811;28;20033;-58
2021/09/20 03:01:07;;;;;;;6.53;2.57;;;;;;;;;;5070838;28;20033;-58
2021/09/20 03:03:33;;;;;;;4.37;2.20;;;;;;;;;;5074912;28;20024;-58
2021/09/20 03:06:00;;;;;;;4.60;3.30;;;;;;;;;;5074860;28;20031;-58
2021/09/20 03:08:27;;;;;;;9.20;3.40;;;;;;;;;;5074589;28;20118;-57
2021/09/20 03:10:54;;;;;;;3.83;2.13;;;;;;;;;;5074845;28;20409;-58
2021/09/20 03:13:20;;;;;;;4.23;2.20;;;;;;;;;;5073255;28;20032;-59
2021/09/20 03:15:47;;;;;;;4.30;2.40;;;;;;;;;;5069626;28;20050;-59
2021/09/20 03:18:14;;;;;;;3.87;2.40;;;;;;;;;;5069009;28;20543;-58
2021/09/20 03:20:41;;;;;;;5.20;2.53;;;;;;;;;;5069794;28;20545;-58
2021/09/20 03:23:08;;;;;;;7.03;2.47;;;;;;;;;;5069797;28;20031;-58
2021/09/20 03:25:34;;;;;;;5.17;2.80;;;;;;;;;;5074606;28;20418;-58
2021/09/20 03:28:01;;;;;;;3.40;2.27;;;;;;;;;;5074559;28;20444;-58
2021/09/20 03:30:28;;;;;;;5.97;2.90;;;;;;;;;;5074354;28;20040;-58
2021/09/20 03:32:55;;;;;;;7.03;3.77;;;;;;;;;;5074281;28;20463;-58
2021/09/20 03:35:21;;;;;;;6.00;3.17;;;;;;;;;;5073049;28;20040;-58
2021/09/20 03:37:49;;;;;;;6.17;3.20;;;;;;;;;;5069411;28;20032;-58
2021/09/20 03:40:18;;;;;;;4.27;2.50;;;;;;;;;;5069153;28;20074;-58
2021/09/20 03:42:45;;;;;;;8.47;3.50;;;;;;;;;;5068011;28;20078;-58
2021/09/20 03:45:12;;;;;;;8.57;4.50;;;;;;;;;;5069865;28;20040;-58
2021/09/20 03:47:39;;;;;;;8.37;3.10;;;;;;;;;;5074081;28;20111;-58
2021/09/20 03:50:07;;;;;;;7.40;3.60;;;;;;;;;;5073543;28;20030;-59
2021/09/20 03:52:34;;;;;;;6.57;3.97;;;;;;;;;;5074048;28;20161;-60
2021/09/20 03:55:01;;;;;;;8.97;4.33;;;;;;;;;;5073858;28;20032;-59
2021/09/20 03:57:28;;;;;;;8.60;4.33;;;;;;;;;;5072956;28;20021;-58
2021/09/20 03:59:54;;;;;;;8.07;4.00;;;;;;;;;;5068673;28;20504;-58
2021/09/20 04:02:21;;;;;;;7.40;3.50;;;;;;;;;;5068992;28;20024;-58
2021/09/20 04:04:48;;;;;;;7.77;3.77;;;;;;;;;;5068531;28;20020;-58
2021/09/20 04:07:15;;;;;;;6.87;3.73;;;;;;;;;;5068612;28;20028;-58
2021/09/20 04:09:42;;;;;;;4.40;2.97;;;;;;;;;;5073993;28;20020;-58
2021/09/20 04:12:09;;;;;;;8.67;3.10;;;;;;;;;;5073427;28;20541;-59
2021/09/20 04:14:37;;;;;;;6.33;3.10;;;;;;;;;;5072999;28;20021;-59
2021/09/20 04:17:05;;;;;;;6.37;4.13;;;;;;;;;;5073527;28;20020;-58
2021/09/20 04:19:32;;;;;;;7.40;4.10;;;;;;;;;;5072792;28;20030;-58
2021/09/20 04:21:59;;;;;;;4.63;3.17;;;;;;;;;;5068194;28;20519;-59
2021/09/20 04:24:25;;;;;;;9.30;3.50;;;;;;;;;;5067889;28;20384;-58
2021/09/20 04:26:52;;;;;;;8.53;3.70;;;;;;;;;;5068288;28;20387;-58
2021/09/20 04:29:19;;;;;;;12.43;3.70;;;;;;;;;;5068289;28;20052;-58
2021/09/20 04:31:46;;;;;;;9.90;3.63;;;;;;;;;;5073063;28;20071;-58
2021/09/20 04:34:13;;;;;;;5.93;3.23;;;;;;;;;;5072900;28;20032;-58
2021/09/20 04:36:39;;;;;;;5.73;3.50;;;;;;;;;;5072911;28;20071;-59
2021/09/20 04:39:06;;;;;;;7.87;3.70;;;;;;;;;;5072631;28;20024;-59
2021/09/20 04:41:33;;;;;;;7.27;3.10;;;;;;;;;;5072906;28;20069;-58
2021/09/20 04:44:00;;;;;;;4.77;3.00;;;;;;;;;;5067460;28;20086;-58
2021/09/20 04:46:27;;;;;;;9.80;3.20;;;;;;;;;;5068014;28;20048;-58
2021/09/20 04:48:54;;;;;;;12.50;4.03;;;;;;;;;;5067871;28;20099;-59
2021/09/20 04:51:20;;;;;;;4.30;2.73;;;;;;;;;;5067885;28;20036;-58
2021/09/20 04:53:47;;;;;;;15.30;4.97;;;;;;;;;;5071769;28;20116;-58
2021/09/20 04:56:14;;;;;;;6.83;3.00;;;;;;;;;;5072585;28;20039;-58
2021/09/20 04:58:41;;;;;;;7.30;3.60;;;;;;;;;;5072815;28;20395;-58
2021/09/20 05:01:08;;;;;;;5.30;3.27;;;;;;;;;;5072440;28;20477;-60
2021/09/20 05:03:34;;;;;;;5.67;3.27;;;;;;;;;;5072813;28;20028;-58
2021/09/20 05:06:01;;;;;;;5.27;3.20;;;;;;;;;;5067768;28;20107;-58
2021/09/20 05:08:28;;;;;;;4.63;2.57;;;;;;;;;;5067597;28;20063;-58
2021/09/20 05:10:55;;;;;;;4.97;3.00;;;;;;;;;;5067172;28;20040;-58
2021/09/20 05:13:22;;;;;;;8.87;3.27;;;;;;;;;;5067214;28;20463;-59
2021/09/20 05:15:48;;;;;;;6.53;2.63;;;;;;;;;;5071532;28;20483;-58
2021/09/20 05:18:15;;;;;;;5.43;3.13;;;;;;;;;;5072610;28;20417;-59
2021/09/20 05:20:42;;;;;;;10.53;2.80;;;;;;;;;;5072598;28;20471;-58
2021/09/20 05:23:09;;;;;;;6.30;2.87;;;;;;;;;;5072137;28;20025;-58
2021/09/20 05:25:35;;;;;;;4.07;2.87;;;;;;;;;;5072326;28;20025;-58
2021/09/20 05:28:03;;;;;;;6.23;3.17;;;;;;;;;;5067868;28;20016;-58
2021/09/20 05:30:29;;;;;;;6.80;2.80;;;;;;;;;;5067329;28;20106;-59
2021/09/20 05:32:56;;;;;;;6.63;3.20;;;;;;;;;;5066877;28;20071;-58
2021/09/20 05:35:23;;;;;;;4.13;2.70;;;;;;;;;;5067249;28;20966;-58
2021/09/20 05:37:50;;;;;;;4.40;2.77;;;;;;;;;;5070835;28;20353;-58
2021/09/20 05:40:17;;;;;;;4.37;2.50;;;;;;;;;;5072066;28;20036;-58
2021/09/20 05:42:44;;;;;;;4.57;2.70;;;;;;;;;;5071874;28;20123;-59
2021/09/20 05:45:11;;;;;;;7.67;2.50;;;;;;;;;;5072040;28;20041;-58
2021/09/20 05:47:39;;;;;;;5.33;2.50;;;;;;;;;;5071657;28;20039;-58
2021/09/20 05:50:06;;;;;;;9.37;2.70;;;;;;;;;;5068393;28;20031;-58
2021/09/20 05:52:33;;;;;;;6.37;3.87;;;;;;;;;;5067163;28;20025;-58
2021/09/20 05:55:00;;;;;;;8.53;3.27;;;;;;;;;;5067118;28;20518;-58
2021/09/20 05:57:26;;;;;;;6.07;3.20;;;;;;;;;;5066632;28;20046;-58
2021/09/20 05:59:53;;;;;;;4.80;3.53;;;;;;;;;;5069829;28;20023;-58
2021/09/20 06:02:20;;;;;;;8.03;3.27;;;;;;;;;;5072150;28;20034;-58
2021/09/20 06:04:47;;;;;;;13.47;2.93;;;;;;;;;;5072051;28;20029;-58
2021/09/20 06:07:13;;;;;;;12.17;3.57;;;;;;;;;;5075482;28;20028;-58
2021/09/20 06:09:40;;;;;;;5.97;2.47;;;;;;;;;;5076094;28;20017;-58
2021/09/20 06:12:07;;;;;;;4.03;2.90;;;;;;;;;;5072425;28;20059;-59
2021/09/20 06:14:34;;;;;;;5.97;2.70;;;;;;;;;;5070679;28;20040;-58
2021/09/20 06:17:01;;;;;;;8.17;2.67;;;;;;;;;;5070417;28;20383;-58
2021/09/20 06:19:28;;;;;;;4.93;2.57;;;;;;;;;;5070532;28;20028;-58
2021/09/20 06:21:55;;;;;;;10.33;2.93;;;;;;;;;;5073547;28;20028;-59
2021/09/20 06:24:22;;;;;;;4.53;2.30;;;;;;;;;;5075709;28;20483;-59
2021/09/20 06:26:48;;;;;;;4.67;2.60;;;;;;;;;;5075621;28;20016;-58
2021/09/20 06:29:15;;;;;;;3.70;2.43;;;;;;;;;;5075198;28;20028;-58
2021/09/20 06:31:42;;;;;;;3.60;2.40;;;;;;;;;;5074765;28;20107;-58
2021/09/20 06:34:10;;;;;;;6.20;2.47;;;;;;;;;;5072505;28;20459;-58
2021/09/20 06:36:37;;;;;;;5.83;2.70;;;;;;;;;;5070331;28;20116;-58
2021/09/20 06:39:04;;;;;;;7.63;2.90;;;;;;;;;;5070179;28;20060;-58
2021/09/20 06:41:31;;;;;;;6.00;3.50;;;;;;;;;;5070424;28;20028;-58
2021/09/20 06:43:58;;;;;;;7.17;3.17;;;;;;;;;;5073101;28;20024;-58
2021/09/20 06:46:26;;;;;;;6.23;2.80;;;;;;;;;;5074773;28;20429;-58
2021/09/20 06:48:55;;;;;;;7.57;2.93;;;;;;;;;;5074655;28;20093;-58
2021/09/20 06:51:22;;;;;;;8.53;3.40;;;;;;;;;;5075259;28;20024;-59
2021/09/20 06:53:50;;;;;;;4.63;2.90;;;;;;;;;;5075133;28;20021;-58
2021/09/20 06:56:17;;;;;;;5.10;3.47;;;;;;;;;;5072187;28;20033;-59
2021/09/20 06:58:44;;;;;;;7.90;3.23;;;;;;;;;;5069812;28;20497;-58
2021/09/20 07:01:11;;;;;;;12.43;2.80;;;;;;;;;;5069805;28;20033;-59
2021/09/20 07:03:38;;;;;;;5.13;3.20;;;;;;;;;;5070067;28;20028;-58
2021/09/20 07:06:06;;;;;;;6.83;3.03;;;;;;;;;;5071995;28;20028;-58
2021/09/20 07:08:33;;;;;;;9.13;3.57;;;;;;;;;;5074439;28;20093;-59
2021/09/20 07:11:00;;;;;;;9.73;3.27;;;;;;;;;;5074912;28;20040;-58
2021/09/20 07:13:27;;;;;;;4.80;2.80;;;;;;;;;;5074801;28;20540;-58
2021/09/20 07:15:54;;;;;;;12.17;4.67;;;;;;;;;;5074823;28;20032;-59
2021/09/20 07:18:20;;;;;;;5.80;3.00;;;;;;;;;;5070230;28;20028;-58
2021/09/20 07:20:47;;;;;;;7.27;3.47;;;;;;;;;;5069867;28;20024;-59
2021/09/20 07:23:14;;;;;;;5.47;3.20;;;;;;;;;;5069607;28;20028;-58
2021/09/20 07:25:41;;;;;;;4.73;3.10;;;;;;;;;;5069641;28;20476;-59
2021/09/20 07:28:08;;;;;;;8.80;3.43;;;;;;;;;;5071184;28;20036;-58
2021/09/20 07:30:37;;;;;;;5.63;3.17;;;;;;;;;;5074382;28;20027;-58
2021/09/20 07:33:04;;;;;;;6.90;3.47;;;;;;;;;;5073905;28;20382;-58
2021/09/20 07:35:30;;;;;;;8.17;3.50;;;;;;;;;;5074392;28;20032;-58
2021/09/20 07:37:57;;;;;;;7.60;3.13;;;;;;;;;;5074138;28;20028;-58
2021/09/20 07:40:26;;;;;;;6.20;2.90;;;;;;;;;;5072166;28;20033;-59
2021/09/20 07:42:54;;;;;;;5.97;3.17;;;;;;;;;;5069359;28;20024;-58
2021/09/20 07:45:21;;;;;;;8.27;3.60;;;;;;;;;;5069178;28;20028;-59
2021/09/20 07:47:48;;;;;;;5.13;3.20;;;;;;;;;;5068704;28;20024;-58
2021/09/20 07:50:16;;;;;;;6.17;3.20;;;;;;;;;;5070843;28;20086;-58
2021/09/20 07:52:44;;;;;;;11.47;3.23;;;;;;;;;;5074199;28;20025;-58
2021/09/20 07:55:11;;;;;;;7.67;3.50;;;;;;;;;;5073975;28;20040;-58
2021/09/20 07:57:38;;;;;;;4.60;3.00;;;;;;;;;;5073573;28;20028;-58
2021/09/20 08:00:06;;;;;;;5.47;2.90;;;;;;;;;;5074041;28;20028;-58
2021/09/20 08:02:32;;;;;;;6.30;3.50;;;;;;;;;;5071079;28;20588;-59
2021/09/20 08:04:59;;;;;;;6.43;2.63;;;;;;;;;;5069143;28;20442;-58
2021/09/20 08:07:26;;;;;;;21.07;3.87;;;;;;;;;;5068722;28;20110;-58
2021/09/20 08:09:53;;;;;;;7.63;3.30;;;;;;;;;;5068706;28;20079;-58
2021/09/20 08:12:20;;;;;;;7.67;3.57;;;;;;;;;;5069801;28;20056;-58
2021/09/20 08:14:46;;;;;;;7.13;3.43;;;;;;;;;;5073467;28;20024;-58
2021/09/20 08:17:13;;;;;;;14.53;3.93;;;;;;;;;;5073649;28;20028;-58
2021/09/20 08:19:40;;;;;;;8.83;3.60;;;;;;;;;;5073024;28;20341;-58
2021/09/20 08:22:07;;;;;;;5.90;3.80;;;;;;;;;;5073156;28;20070;-58
2021/09/20 08:24:34;;;;;;;10.33;3.70;;;;;;;;;;5071741;28;20032;-58
2021/09/20 08:27:00;;;;;;;8.80;4.37;;;;;;;;;;5068206;28;20055;-58
2021/09/20 08:29:27;;;;;;;5.70;3.90;;;;;;;;;;5068130;28;20372;-58
2021/09/20 08:31:54;;;;;;;5.20;3.77;;;;;;;;;;5067751;28;20103;-58
2021/09/20 08:34:21;;;;;;;4.60;3.40;;;;;;;;;;5068844;28;20123;-58
2021/09/20 08:36:49;;;;;;;6.20;3.90;;;;;;;;;;5072780;28;20357;-58
2021/09/20 08:39:16;;;;;;;6.90;4.07;;;;;;;;;;5073002;28;20021;-58
2021/09/20 08:41:43;;;;;;;7.40;3.57;;;;;;;;;;5072906;28;20071;-58
2021/09/20 08:44:10;;;;;;;5.33;3.40;;;;;;;;;;5072745;28;20090;-58
2021/09/20 08:46:40;;;;;;;8.00;4.47;;;;;;;;;;5071387;28;20020;-58
2021/09/20 08:49:07;;;;;;;6.27;3.57;;;;;;;;;;5067888;28;20032;-58
2021/09/20 08:51:34;;;;;;;6.03;3.83;;;;;;;;;;5067736;28;20385;-58
2021/09/20 08:54:01;;;;;;;9.37;3.63;;;;;;;;;;5067291;28;20033;-59
2021/09/20 08:56:28;;;;;;;5.63;3.00;;;;;;;;;;5068631;28;20068;-58
2021/09/20 08:58:55;;;;;;;6.23;3.00;;;;;;;;;;5072767;28;20033;-58
2021/09/20 09:01:22;;;;;;;8.03;3.23;;;;;;;;;;5072719;28;20071;-58
2021/09/20 09:03:49;;;;;;;5.07;3.50;;;;;;;;;;5072459;28;20372;-58
2021/09/20 09:06:28;;;;;;;5.47;3.47;;;;;;;;;;5072112;28;20028;-58
2021/09/20 09:08:55;;;;;;;7.17;3.57;;;;;;;;;;5071228;28;20077;-58
2021/09/20 09:11:22;;;;;;;7.03;3.17;;;;;;;;;;5067749;28;20052;-59
2021/09/20 09:13:50;;;;;;;4.90;3.03;;;;;;;;;;5067021;28;20028;-58
2021/09/20 09:16:21;;;;;;;5.10;3.30;;;;;;;;;;5067515;28;20545;-58
2021/09/20 09:19:00;;;;;;;5.13;2.80;;;;;;;;;;5068221;28;20439;-58
2021/09/20 09:21:45;;;;;;;5.70;2.90;;;;;;;;;;5072170;28;20028;-58
2021/09/20 09:24:16;;;;;;;5.40;2.23;;;;;;;;;;5072460;28;20024;-58
2021/09/20 09:26:56;;;;;;;5.50;2.70;;;;;;;;;;5071986;28;20031;-58
2021/09/20 09:29:23;;;;;;;5.60;2.87;;;;;;;;;;5072070;28;20025;-58
2021/09/20 09:31:54;;;;;;;8.73;3.67;;;;;;;;;;5069340;28;20033;-58
2021/09/20 09:34:23;;;;;;;6.10;3.20;;;;;;;;;;5067475;28;20061;-58
2021/09/20 09:36:50;;;;;;;8.87;3.50;;;;;;;;;;5067273;28;20108;-58
2021/09/20 09:39:29;;;;;;;8.77;3.10;;;;;;;;;;5066927;28;20020;-58
2021/09/20 09:41:57;;;;;;;9.33;3.27;;;;;;;;;;5049759;28;20052;-58
2021/09/20 09:44:34;;;;;;;5.47;2.90;;;;;;;;;;5052112;28;20128;-58
2021/09/20 09:47:01;;;;;;;4.63;3.17;;;;;;;;;;5052229;28;20068;-58
2021/09/20 09:49:29;;;;;;;8.43;2.73;;;;;;;;;;5052754;28;20550;-58
2021/09/20 09:52:17;;;;;;;6.27;2.67;;;;;;;;;;5072243;28;20021;-58
2021/09/20 09:54:44;;;;;;;4.43;2.73;;;;;;;;;;5067459;28;20165;-58
2021/09/20 09:57:12;;;;;;;5.30;2.87;;;;;;;;;;5067043;28;20029;-58
2021/09/20 09:59:39;;;;;;;5.33;2.83;;;;;;;;;;5066183;28;20070;-58
2021/09/20 10:02:22;;;;;;;6.90;2.77;;;;;;;;;;5067117;28;20025;-58
2021/09/20 10:04:51;;;;;;;4.67;2.77;;;;;;;;;;5071422;28;20071;-58
2021/09/20 10:07:25;;;;;;;7.77;2.97;;;;;;;;;;5071907;28;20043;-58
2021/09/20 10:09:53;;;;;;;14.03;3.47;;;;;;;;;;5071342;28;20024;-58
2021/09/20 10:12:22;;;;;;;8.87;3.23;;;;;;;;;;5071880;28;20464;-58
2021/09/20 10:14:49;;;;;;;5.03;3.40;;;;;;;;;;5072050;28;20374;-58
2021/09/20 10:17:19;;;;;;;6.30;3.63;;;;;;;;;;5066906;28;20033;-58
2021/09/20 10:19:49;;;;;;;7.43;4.00;;;;;;;;;;5066490;28;20044;-59
2021/09/20 10:22:17;;;;;;;7.07;4.23;;;;;;;;;;5066924;28;20021;-59
2021/09/20 10:24:44;;;;;;;5.63;3.17;;;;;;;;;;5066621;28;20029;-58
2021/09/20 10:27:12;;;;;;;5.73;3.50;;;;;;;;;;5071625;28;20031;-58
2021/09/20 10:29:40;;;;;;;5.07;3.07;;;;;;;;;;5071405;28;20024;-59
2021/09/20 10:32:08;;;;;;;5.27;3.13;;;;;;;;;;5072124;28;20364;-58
2021/09/20 10:34:34;;;;;;;4.50;2.80;;;;;;;;;;5071781;28;20139;-59
2021/09/20 10:37:04;;;;;;;7.37;3.17;;;;;;;;;;5071732;28;20035;-58
2021/09/20 10:39:49;;;;;;;9.50;3.03;;;;;;;;;;5066859;28;20021;-58
2021/09/20 10:42:35;;;;;;;7.20;3.25;;;;;;;;;;5046848;28;20029;-58
2021/09/20 10:45:06;;;;;;;7.27;3.30;;;;;;;;;;5035696;28;20033;-59
2021/09/20 10:47:42;;;;;;;4.50;2.70;;;;;;;;;;5029528;28;20017;-58
2021/09/20 10:50:09;;;;;;;8.23;3.70;;;;;;;;;;5055543;28;20024;-58
2021/09/20 10:52:36;;;;;;;4.87;3.10;;;;;;;;;;5074049;28;20021;-58
2021/09/20 10:55:08;;;;;;;7.33;3.03;;;;;;;;;;5074740;28;20028;-58
2021/09/20 10:57:36;;;;;;;4.90;3.03;;;;;;;;;;5074764;28;20095;-58
2021/09/20 11:00:25;;;;;;;5.17;3.53;;;;;;;;;;5072845;28;20123;-58
2021/09/20 11:02:51;;;;;;;6.63;3.17;;;;;;;;;;5069752;28;20051;-58
2021/09/20 11:05:25;;;;;;;6.73;3.17;;;;;;;;;;5069706;28;20064;-58
2021/09/20 11:07:52;;;;;;;7.93;4.27;;;;;;;;;;5069613;28;20097;-58
2021/09/20 11:10:30;;;;;;;6.47;3.13;;;;;;;;;;5072070;28;20099;-58
2021/09/20 11:12:56;;;;;;;4.40;2.93;;;;;;;;;;5074659;28;20368;-58
2021/09/20 11:15:23;;;;;;;7.63;3.27;;;;;;;;;;5074694;28;20472;-58
2021/09/20 11:17:51;;;;;;;8.23;3.63;;;;;;;;;;5074767;28;20031;-58
2021/09/20 11:20:21;;;;;;;10.97;4.97;;;;;;;;;;5074114;28;20371;-58
2021/09/20 11:22:47;;;;;;;6.57;3.93;;;;;;;;;;5071505;28;20475;-58
2021/09/20 11:25:16;;;;;;;9.53;4.13;;;;;;;;;;5068944;28;20024;-58
2021/09/20 11:27:42;;;;;;;6.93;4.00;;;;;;;;;;5069443;28;20119;-58
2021/09/20 11:30:09;;;;;;;5.40;4.00;;;;;;;;;;5069519;28;20110;-58
2021/09/20 11:33:11;;;;;;;6.37;3.40;;;;;;;;;;5071760;28;20079;-58
2021/09/20 11:35:37;;;;;;;4.77;2.77;;;;;;;;;;5053547;28;20045;-58
2021/09/20 11:38:12;;;;;;;5.83;3.60;;;;;;;;;;5056238;28;20491;-58
2021/09/20 11:40:39;;;;;;;9.23;3.45;;;;;;;;;;5074409;28;20031;-58
2021/09/20 11:43:06;;;;;;;4.60;2.90;;;;;;;;;;5073526;28;20095;-58
2021/09/20 11:45:37;;;;;;;5.50;3.23;;;;;;;;;;5069922;28;20025;-58
2021/09/20 11:48:21;;;;;;;7.80;3.97;;;;;;;;;;5069188;28;20102;-58
2021/09/20 11:50:47;;;;;;;5.60;3.53;;;;;;;;;;5068682;28;20493;-58
2021/09/20 11:53:18;;;;;;;5.37;3.60;;;;;;;;;;5068352;28;20025;-58
2021/09/20 11:55:46;;;;;;;5.67;3.63;;;;;;;;;;5072877;28;20353;-58
2021/09/20 11:58:15;;;;;;;7.60;4.63;;;;;;;;;;5074181;28;20111;-58
2021/09/20 12:00:43;;;;;;;8.13;4.57;;;;;;;;;;5073779;28;20035;-58
2021/09/20 12:03:13;;;;;;;7.53;4.03;;;;;;;;;;5072870;28;20078;-58
2021/09/20 12:05:42;;;;;;;7.70;4.13;;;;;;;;;;5073599;28;20025;-58
2021/09/20 12:08:16;;;;;;;6.57;3.90;;;;;;;;;;5068742;28;20612;-58
2021/09/20 12:10:44;;;;;;;7.33;3.97;;;;;;;;;;5053014;28;20043;-58
2021/09/20 12:13:12;;;;;;;6.73;4.17;;;;;;;;;;5068157;28;20030;-57
2021/09/20 12:15:40;;;;;;;7.70;4.83;;;;;;;;;;5068688;28;20033;-58
2021/09/20 12:18:08;;;;;;;9.03;5.40;;;;;;;;;;5073197;28;20037;-58
2021/09/20 12:20:42;;;;;;;17.57;5.77;;;;;;;;;;5073240;28;20052;-58
2021/09/20 12:23:13;;;;;;;11.77;6.50;;;;;;;;;;5073049;28;20040;-58
2021/09/20 12:25:42;;;;;;;11.07;6.10;;;;;;;;;;5072105;28;20471;-58
2021/09/20 12:28:16;;;;;;;55.50;32.43;;;;;;;;;;5072687;28;20095;-58
2021/09/20 12:30:51;;;;;;;21.48;13.55;;;;;;;;;;5067709;28;20017;-58
2021/09/20 12:33:20;;;;;;;10.47;6.70;;;;;;;;;;5067912;28;20104;-58
2021/09/20 12:35:47;;;;;;;9.17;5.37;;;;;;;;;;5068225;28;20040;-57
2021/09/20 12:38:20;;;;;;;9.23;4.00;;;;;;;;;;5068221;28;20020;-58
2021/09/20 12:40:48;;;;;;;6.33;4.07;;;;;;;;;;5073121;28;20435;-57
2021/09/20 12:43:16;;;;;;;6.37;3.27;;;;;;;;;;5072243;28;20050;-58
2021/09/20 12:45:45;;;;;;;7.10;3.60;;;;;;;;;;5072921;28;20024;-58
2021/09/20 12:48:12;;;;;;;7.77;4.00;;;;;;;;;;5072991;28;20029;-58
2021/09/20 12:50:40;;;;;;;7.10;3.07;;;;;;;;;;5071630;28;20040;-58
2021/09/20 12:53:07;;;;;;;8.77;3.03;;;;;;;;;;5067000;28;20119;-58
2021/09/20 12:55:38;;;;;;;4.90;2.93;;;;;;;;;;5067391;28;20097;-58
2021/09/20 12:58:06;;;;;;;6.20;3.53;;;;;;;;;;5067665;28;20438;-58
2021/09/20 13:00:34;;;;;;;6.37;4.10;;;;;;;;;;5068351;28;20519;-58
2021/09/20 13:03:08;;;;;;;14.57;5.50;;;;;;;;;;5072307;28;20025;-60
2021/09/20 13:05:48;;;;;;;6.40;4.40;;;;;;;;;;5061178;28;20086;-57
2021/09/20 13:08:15;;;;;;;11.13;4.50;;;;;;;;;;5071908;28;20376;-58
2021/09/20 13:10:45;;;;;;;7.53;4.00;;;;;;;;;;5072117;28;20029;-57
2021/09/20 13:13:12;;;;;;;6.40;4.30;;;;;;;;;;5070490;28;20028;-58
2021/09/20 13:15:46;;;;;;;11.87;4.80;;;;;;;;;;5066579;28;20532;-58
2021/09/20 13:18:20;;;;;;;10.30;5.60;;;;;;;;;;5067163;28;20021;-58
2021/09/20 13:20:46;;;;;;;7.13;4.33;;;;;;;;;;5052713;28;20127;-58
2021/09/20 13:23:14;;;;;;;7.03;4.07;;;;;;;;;;5060943;28;20024;-58
2021/09/20 13:25:49;;;;;;;6.47;4.37;;;;;;;;;;5071844;28;20067;-57
2021/09/20 13:28:20;;;;;;;10.27;4.30;;;;;;;;;;5072442;28;20025;-58
2021/09/20 13:30:48;;;;;;;6.20;4.27;;;;;;;;;;5072367;28;20471;-58
2021/09/20 13:33:15;;;;;;;6.20;4.07;;;;;;;;;;5071529;28;20376;-58
2021/09/20 13:35:47;;;;;;;8.77;4.90;;;;;;;;;;5068940;28;20547;-58
2021/09/20 13:38:15;;;;;;;5.80;3.83;;;;;;;;;;5066963;28;20019;-58
2021/09/20 13:40:42;;;;;;;7.37;4.00;;;;;;;;;;5066712;28;20024;-58
2021/09/20 13:43:09;;;;;;;5.63;3.70;;;;;;;;;;5066919;28;20056;-58
2021/09/20 13:45:36;;;;;;;6.43;3.63;;;;;;;;;;5069197;28;20017;-58
2021/09/20 13:48:06;;;;;;;6.43;4.43;;;;;;;;;;5072276;28;20112;-58
2021/09/20 13:50:33;;;;;;;5.50;3.80;;;;;;;;;;5072433;28;20099;-58
2021/09/20 13:53:00;;;;;;;6.73;3.80;;;;;;;;;;5071625;28;20078;-58
2021/09/20 13:55:27;;;;;;;6.13;3.80;;;;;;;;;;5071689;28;20055;-58
2021/09/20 13:57:55;;;;;;;8.57;3.90;;;;;;;;;;5069020;28;20032;-58
2021/09/20 14:00:22;;;;;;;8.03;5.03;;;;;;;;;;5066967;28;20032;-58
2021/09/20 14:02:49;;;;;;;5.10;3.43;;;;;;;;;;5067132;28;20408;-58
2021/09/20 14:05:16;;;;;;;7.07;4.17;;;;;;;;;;5066943;28;20029;-58
2021/09/20 14:07:42;;;;;;;5.40;2.90;;;;;;;;;;5068533;28;20361;-58
2021/09/20 14:10:11;;;;;;;4.37;3.03;;;;;;;;;;5071928;28;20033;-58
2021/09/20 14:12:40;;;;;;;5.63;3.40;;;;;;;;;;5071557;28;20040;-58
2021/09/20 14:15:07;;;;;;;6.63;3.33;;;;;;;;;;5071851;28;20032;-58
2021/09/20 14:17:34;;;;;;;5.27;3.90;;;;;;;;;;5071301;28;20021;-58
2021/09/20 14:20:01;;;;;;;10.27;4.00;;;;;;;;;;5069504;28;20033;-58
2021/09/20 14:22:29;;;;;;;4.50;3.10;;;;;;;;;;5066464;28;20488;-58
2021/09/20 14:24:56;;;;;;;5.30;4.07;;;;;;;;;;5066185;28;20029;-58
2021/09/20 14:27:22;;;;;;;5.47;4.07;;;;;;;;;;5069009;28;20013;-58
2021/09/20 14:29:50;;;;;;;5.27;3.57;;;;;;;;;;5072024;28;20020;-58
2021/09/20 14:32:18;;;;;;;6.43;3.90;;;;;;;;;;5074625;28;20031;-58
2021/09/20 14:34:45;;;;;;;11.80;4.37;;;;;;;;;;5075197;28;20032;-58
2021/09/20 14:37:13;;;;;;;5.83;4.27;;;;;;;;;;5075421;28;20093;-58
2021/09/20 14:39:39;;;;;;;11.30;4.43;;;;;;;;;;5075099;28;20024;-58
2021/09/20 14:42:06;;;;;;;7.87;4.70;;;;;;;;;;5072704;28;20063;-59
2021/09/20 14:44:33;;;;;;;6.80;3.93;;;;;;;;;;5070284;28;20029;-58
2021/09/20 14:47:00;;;;;;;9.43;4.40;;;;;;;;;;5069794;28;20078;-58